This is the latest recevied weather packets stored in our database for station/object K9ZOG. If no packets are shown the sender has not sent any weather packets the latest 10 day(s).
| Time | Temp. | Humidity | Pressure | Rain* | Wind** | Luminosity | Snow |
|---|---|---|---|---|---|---|---|
| 1777593252 | 6.67° C | 61% | 1015 hPa | 0 mm | - | 12 W/m² | - |
| 1777592953 | 6.67° C | 62% | 1015 hPa | 0 mm | - | 17 W/m² | - |
| 1777592654 | 6.67° C | 62% | 1015.1 hPa | 0 mm | - | 18 W/m² | - |
| 1777592353 | 6.67° C | 60% | 1015.1 hPa | 0 mm | - | 21 W/m² | - |
| 1777592053 | 6.67° C | 61% | 1015.2 hPa | 0 mm | - | 19 W/m² | - |
| 1777591752 | 6.67° C | 61% | 1015.1 hPa | 0 mm | - | 24 W/m² | - |
| 1777591453 | 6.67° C | 62% | 1015.2 hPa | 0 mm | - | 26 W/m² | - |
| 1777591153 | 6.67° C | 59% | 1015.2 hPa | 0 mm | - | 29 W/m² | - |
| 1777590852 | 7.22° C | 59% | 1015.2 hPa | 0 mm | - | 34 W/m² | - |
| 1777590553 | 7.22° C | 57% | 1015.4 hPa | 0 mm | - | 33 W/m² | - |
| 1777590254 | 7.22° C | 59% | 1015.4 hPa | 0 mm | - | 41 W/m² | - |
| 1777589953 | 7.22° C | 59% | 1015.5 hPa | 0 mm | - | 36 W/m² | - |
| 1777589653 | 7.22° C | 57% | 1015.5 hPa | 0 mm | - | 31 W/m² | - |
| 1777589352 | 7.22° C | 59% | 1015.5 hPa | 0 mm | - | 29 W/m² | - |
| 1777589052 | 7.22° C | 56% | 1015.7 hPa | 0 mm | - | 30 W/m² | - |
| 1777588752 | 7.22° C | 56% | 1015.7 hPa | 0 mm | - | 38 W/m² | - |
| 1777588452 | 7.78° C | 54% | 1015.8 hPa | 0 mm | - | 36 W/m² | - |
| 1777588154 | 7.78° C | 53% | 1015.7 hPa | 0 mm | - | 37 W/m² | - |
| 1777587852 | 7.78° C | 55% | 1015.7 hPa | 0 mm | - | 44 W/m² | - |
| 1777587553 | 7.78° C | 54% | 1015.7 hPa | 0 mm | - | 45 W/m² | - |
| 1777587253 | 7.78° C | 53% | 1015.7 hPa | 0 mm | - | 61 W/m² | - |
| 1777586952 | 7.78° C | 56% | 1015.7 hPa | 0 mm | - | 62 W/m² | - |
| 1777586652 | 7.78° C | 55% | 1015.6 hPa | 0 mm | - | 91 W/m² | - |
| 1777586353 | 8.33° C | 54% | 1015.6 hPa | 0 mm | - | 83 W/m² | - |
| 1777586052 | 8.33° C | 53% | 1015.5 hPa | 0 mm | - | 121 W/m² | - |
* Rain latest hour (hover to see other rain measurements)
** Current wind speed in m/s (hover to see current wind gust speed)